createdAt,value
2022-08-26T00:02:01.239Z,86.53
2022-08-26T00:04:31.387Z,86.65
2022-08-26T00:07:00.889Z,86.89
2022-08-26T00:09:29.710Z,86.87
2022-08-26T00:11:58.221Z,86.74
2022-08-26T00:14:31.029Z,86.38
2022-08-26T00:17:00.475Z,86.61
2022-08-26T00:19:29.115Z,86.77
2022-08-26T00:21:57.650Z,86.72
2022-08-26T00:24:26.197Z,86.88
2022-08-26T00:26:54.773Z,86.82
2022-08-26T00:29:23.260Z,86.90
2022-08-26T00:31:51.853Z,86.97
2022-08-26T00:34:20.337Z,87.05
2022-08-26T00:36:51.805Z,87.00
2022-08-26T00:39:21.473Z,86.98
2022-08-26T00:41:50.049Z,86.96
2022-08-26T00:44:19.043Z,87.15
2022-08-26T00:46:51.951Z,87.18
2022-08-26T00:49:28.500Z,87.06
2022-08-26T00:52:02.898Z,86.98
2022-08-26T00:54:37.282Z,86.86
2022-08-26T00:57:16.282Z,86.95
2022-08-26T00:59:47.711Z,86.96
2022-08-26T01:02:20.916Z,87.18
2022-08-26T01:04:55.459Z,87.52
2022-08-26T01:07:26.150Z,87.56
2022-08-26T01:09:55.405Z,87.50
2022-08-26T01:12:25.122Z,87.68
2022-08-26T01:14:54.928Z,87.54
2022-08-26T01:17:23.572Z,87.51
2022-08-26T01:19:56.715Z,87.49
2022-08-26T01:22:33.741Z,87.32
2022-08-26T01:25:04.459Z,87.23
2022-08-26T01:27:36.138Z,87.44
2022-08-26T01:30:06.373Z,87.61
2022-08-26T01:32:35.636Z,87.81
2022-08-26T01:35:09.271Z,87.80
2022-08-26T01:37:40.517Z,87.87
2022-08-26T01:40:14.223Z,87.82
2022-08-26T01:42:46.441Z,87.79
2022-08-26T01:45:19.705Z,87.81
2022-08-26T01:47:57.012Z,87.83
2022-08-26T01:50:30.217Z,87.51
2022-08-26T01:53:02.542Z,87.37
2022-08-26T01:55:34.072Z,87.44
2022-08-26T01:58:07.810Z,87.50
2022-08-26T02:00:37.819Z,87.91
2022-08-26T02:03:17.111Z,88.06
2022-08-26T02:05:51.276Z,87.99
2022-08-26T02:08:24.680Z,87.80
2022-08-26T02:10:55.213Z,87.78
2022-08-26T02:13:26.059Z,87.92
2022-08-26T02:15:56.179Z,88.04
2022-08-26T02:18:27.874Z,88.09
2022-08-26T02:20:57.352Z,88.05
2022-08-26T02:23:26.125Z,87.81
2022-08-26T02:26:00.184Z,87.53
2022-08-26T02:28:34.205Z,87.37
2022-08-26T02:31:03.481Z,87.45
2022-08-26T02:33:33.209Z,87.43
2022-08-26T02:36:02.150Z,87.49
2022-08-26T02:38:32.748Z,87.29
2022-08-26T02:41:02.313Z,87.44
2022-08-26T02:43:31.441Z,87.45
2022-08-26T02:46:02.396Z,87.53
2022-08-26T02:48:31.367Z,87.55
2022-08-26T02:51:01.114Z,87.70
2022-08-26T02:53:31.812Z,88.09
2022-08-26T02:56:00.836Z,87.89
2022-08-26T02:58:30.021Z,87.87
2022-08-26T03:00:58.562Z,87.90
2022-08-26T03:03:27.321Z,88.26
2022-08-26T03:05:56.426Z,88.30
2022-08-26T03:08:25.028Z,88.36
2022-08-26T03:10:54.034Z,88.46
2022-08-26T03:13:22.606Z,88.68
2022-08-26T03:15:51.273Z,88.61
2022-08-26T03:18:20.093Z,88.51
2022-08-26T03:20:49.201Z,88.39
2022-08-26T03:23:18.568Z,88.54
2022-08-26T03:25:50.436Z,88.71
2022-08-26T03:28:19.643Z,88.65
2022-08-26T03:30:48.643Z,88.74
2022-08-26T03:33:18.473Z,88.83
2022-08-26T03:35:47.665Z,88.77
2022-08-26T03:38:19.969Z,88.81
2022-08-26T03:40:48.693Z,88.97
2022-08-26T03:43:19.117Z,89.14
2022-08-26T03:45:47.683Z,89.15
2022-08-26T03:48:16.123Z,88.84
2022-08-26T03:50:44.850Z,88.66
2022-08-26T03:53:13.587Z,88.68
2022-08-26T03:55:42.344Z,88.58
2022-08-26T03:58:12.000Z,88.83
2022-08-26T04:00:40.627Z,88.83
2022-08-26T04:03:11.161Z,89.00
2022-08-26T04:05:41.795Z,89.18
2022-08-26T04:08:10.381Z,89.62
2022-08-26T04:10:39.097Z,89.72
2022-08-26T04:13:07.780Z,89.62
2022-08-26T04:15:36.500Z,89.40
2022-08-26T04:18:05.430Z,89.15
2022-08-26T04:20:34.113Z,88.94
2022-08-26T04:23:02.679Z,89.03
2022-08-26T04:25:31.611Z,89.51
2022-08-26T04:28:00.611Z,89.31
2022-08-26T04:30:29.249Z,89.34
2022-08-26T04:32:58.287Z,89.21
2022-08-26T04:35:26.727Z,88.86
2022-08-26T04:37:55.402Z,88.54
2022-08-26T04:40:26.864Z,88.29
2022-08-26T04:42:55.796Z,88.04
2022-08-26T04:45:25.075Z,87.38
2022-08-26T04:47:55.726Z,86.71
2022-08-26T04:50:25.626Z,86.09
2022-08-26T04:52:55.558Z,85.20
2022-08-26T04:55:38.253Z,84.33
2022-08-26T04:58:08.795Z,84.00
2022-08-26T05:00:39.189Z,83.76
2022-08-26T05:03:10.313Z,82.43
2022-08-26T05:05:41.961Z,81.04
2022-08-26T05:08:11.807Z,80.58
2022-08-26T05:10:42.191Z,80.22
2022-08-26T05:13:15.743Z,79.50
2022-08-26T05:15:45.432Z,78.94
2022-08-26T05:18:15.980Z,78.13
2022-08-26T05:20:54.018Z,77.07
2022-08-26T05:23:24.282Z,76.29
2022-08-26T05:25:59.364Z,75.58
2022-08-26T05:28:30.199Z,74.62
2022-08-26T05:30:59.005Z,73.48
2022-08-26T05:33:28.781Z,72.72
2022-08-26T05:35:57.350Z,71.51
2022-08-26T05:38:26.816Z,70.56
2022-08-26T05:40:59.339Z,69.71
2022-08-26T05:43:28.416Z,69.32
2022-08-26T05:46:06.048Z,68.28
2022-08-26T05:48:34.776Z,67.31
2022-08-26T05:51:05.937Z,66.81
2022-08-26T05:53:35.150Z,66.30
2022-08-26T05:56:07.011Z,65.47
2022-08-26T05:58:38.513Z,64.92
2022-08-26T06:01:10.103Z,64.01
2022-08-26T06:03:43.873Z,63.34
2022-08-26T06:06:14.807Z,62.79
2022-08-26T06:08:49.642Z,61.90
2022-08-26T06:11:20.037Z,61.58
2022-08-26T06:13:49.129Z,61.04
2022-08-26T06:16:22.712Z,59.99
2022-08-26T06:18:54.029Z,59.44
2022-08-26T06:21:25.058Z,58.74
2022-08-26T06:24:13.998Z,58.27
2022-08-26T06:26:49.755Z,58.06
2022-08-26T06:29:24.664Z,57.17
2022-08-26T06:31:56.132Z,56.64
2022-08-26T06:34:29.642Z,55.48
2022-08-26T06:37:01.635Z,54.69
2022-08-26T06:39:31.630Z,54.52
2022-08-26T06:42:02.682Z,54.24
2022-08-26T06:44:35.473Z,53.05
2022-08-26T06:47:04.519Z,52.47
2022-08-26T06:49:33.288Z,52.34
2022-08-26T06:52:02.274Z,51.18
2022-08-26T06:54:30.939Z,51.28
2022-08-26T06:57:00.537Z,50.50
2022-08-26T06:59:30.522Z,51.05
2022-08-26T07:01:59.171Z,50.01
2022-08-26T07:04:28.874Z,49.30
2022-08-26T07:06:57.497Z,48.65
2022-08-26T07:09:28.620Z,49.60
2022-08-26T07:11:57.182Z,49.25
2022-08-26T07:14:26.176Z,48.03
2022-08-26T07:16:55.707Z,48.04
2022-08-26T07:19:27.681Z,48.39
2022-08-26T07:22:04.309Z,47.65
2022-08-26T07:24:35.376Z,47.21
2022-08-26T07:27:05.646Z,46.92
2022-08-26T07:29:35.377Z,46.30
2022-08-26T07:32:05.311Z,46.03
2022-08-26T07:34:34.457Z,46.37
2022-08-26T07:37:03.358Z,45.94
2022-08-26T07:39:32.792Z,45.42
2022-08-26T07:42:07.417Z,44.97
2022-08-26T07:44:37.116Z,43.57
2022-08-26T07:47:10.558Z,43.97
2022-08-26T07:49:57.250Z,43.75
2022-08-26T07:52:28.774Z,43.28
2022-08-26T07:55:00.005Z,42.26
2022-08-26T07:57:29.802Z,41.12
2022-08-26T07:59:58.536Z,40.83
2022-08-26T08:02:29.823Z,41.07
2022-08-26T08:04:59.365Z,40.63
2022-08-26T08:07:38.266Z,40.19
2022-08-26T08:10:11.577Z,39.71
2022-08-26T08:12:40.592Z,39.01
2022-08-26T08:15:13.096Z,38.71
2022-08-26T08:17:55.663Z,38.70
2022-08-26T08:20:29.301Z,38.40
2022-08-26T08:22:58.726Z,38.69
2022-08-26T08:25:27.238Z,37.96
2022-08-26T08:27:55.852Z,37.97
2022-08-26T08:30:25.750Z,37.88
2022-08-26T08:32:55.357Z,37.76
2022-08-26T08:35:25.887Z,37.61
2022-08-26T08:37:54.949Z,37.50
2022-08-26T08:40:26.403Z,37.72
2022-08-26T08:43:01.097Z,36.57
2022-08-26T08:45:37.251Z,36.98
2022-08-26T08:48:13.115Z,37.39
2022-08-26T08:50:45.930Z,37.65
2022-08-26T08:53:17.810Z,37.41
2022-08-26T08:55:58.077Z,38.04
2022-08-26T08:58:35.400Z,37.79
2022-08-26T09:01:11.810Z,38.48
2022-08-26T09:03:50.938Z,38.90
2022-08-26T09:06:20.578Z,38.63
2022-08-26T09:08:51.618Z,38.17
2022-08-26T09:11:20.597Z,37.71
2022-08-26T09:13:51.733Z,37.71
2022-08-26T09:16:24.740Z,36.66
2022-08-26T09:19:14.864Z,35.79
2022-08-26T09:21:55.667Z,35.24
2022-08-26T09:24:28.569Z,34.78
2022-08-26T09:26:58.445Z,34.41
2022-08-26T09:29:28.949Z,33.34
2022-08-26T09:32:18.753Z,33.26
2022-08-26T09:34:58.450Z,32.04
2022-08-26T09:37:39.135Z,32.45
2022-08-26T09:40:18.376Z,32.56
2022-08-26T09:43:07.677Z,32.74
2022-08-26T09:45:37.124Z,31.61
2022-08-26T09:48:08.358Z,30.95
2022-08-26T09:50:39.289Z,31.42
2022-08-26T09:53:17.425Z,32.44
2022-08-26T09:55:54.469Z,32.31
2022-08-26T09:58:37.798Z,32.82
2022-08-26T10:01:13.957Z,32.07
2022-08-26T10:03:44.437Z,32.31
2022-08-26T10:06:26.118Z,31.76
2022-08-26T10:08:58.397Z,31.13
2022-08-26T10:11:34.381Z,31.50
2022-08-26T10:14:17.030Z,31.66
2022-08-26T10:16:52.511Z,31.95
2022-08-26T10:19:40.187Z,32.09
2022-08-26T10:22:23.053Z,33.55
2022-08-26T10:24:57.343Z,33.24
2022-08-26T10:27:40.585Z,32.04
2022-08-26T10:30:24.141Z,32.87
2022-08-26T10:32:57.991Z,32.90
2022-08-26T10:35:27.300Z,33.09
2022-08-26T10:38:03.362Z,32.71
2022-08-26T10:40:44.880Z,33.43
2022-08-26T10:43:21.054Z,33.15
2022-08-26T10:45:53.046Z,32.46
2022-08-26T10:48:35.617Z,33.13
2022-08-26T10:51:05.763Z,32.24
2022-08-26T10:53:44.886Z,32.02
2022-08-26T10:56:24.669Z,31.48
2022-08-26T10:59:03.882Z,31.62
2022-08-26T11:01:42.992Z,31.58
2022-08-26T11:04:23.537Z,31.97
2022-08-26T11:07:24.899Z,32.17
2022-08-26T11:09:53.448Z,32.55
2022-08-26T11:12:57.223Z,32.20
2022-08-26T11:16:09.899Z,32.09
2022-08-26T11:18:48.061Z,32.60
2022-08-26T11:21:45.134Z,33.25
2022-08-26T11:25:00.097Z,34.21
2022-08-26T11:28:02.976Z,34.01
2022-08-26T11:30:43.993Z,33.48
2022-08-26T11:33:59.470Z,34.65
2022-08-26T11:36:42.523Z,34.59
2022-08-26T11:39:19.665Z,34.56
2022-08-26T11:41:52.755Z,33.67
2022-08-26T11:44:24.463Z,33.03
2022-08-26T11:46:58.899Z,33.21
2022-08-26T11:49:29.229Z,32.40
2022-08-26T11:52:15.548Z,31.15
2022-08-26T11:55:02.613Z,32.26
2022-08-26T11:57:34.299Z,30.87
2022-08-26T12:00:07.417Z,30.34
2022-08-26T12:02:40.942Z,30.82
2022-08-26T12:05:12.292Z,31.65
2022-08-26T12:07:42.631Z,32.29
2022-08-26T12:10:24.500Z,32.26
2022-08-26T12:13:00.079Z,32.25
2022-08-26T12:15:31.385Z,31.93
2022-08-26T12:18:15.750Z,31.38
2022-08-26T12:20:47.944Z,31.34
2022-08-26T12:23:25.027Z,31.51
2022-08-26T12:26:05.224Z,32.13
2022-08-26T12:28:41.176Z,32.68
2022-08-26T12:31:10.042Z,33.18
2022-08-26T12:33:38.988Z,33.27
2022-08-26T12:36:08.154Z,32.18
2022-08-26T12:38:39.866Z,32.51
2022-08-26T12:41:08.555Z,32.83
2022-08-26T12:43:40.148Z,31.82
2022-08-26T12:46:11.032Z,32.40
2022-08-26T12:48:44.177Z,31.31
2022-08-26T12:51:23.029Z,31.28
2022-08-26T12:53:52.427Z,32.02
2022-08-26T12:56:27.407Z,32.97
2022-08-26T12:59:10.295Z,32.97
2022-08-26T13:01:44.104Z,32.21
2022-08-26T13:04:38.151Z,32.21
2022-08-26T13:07:29.763Z,32.70
2022-08-26T13:09:58.407Z,33.59
2022-08-26T13:12:30.436Z,32.62
2022-08-26T13:15:00.868Z,33.53
2022-08-26T13:17:30.644Z,33.40
2022-08-26T13:20:03.819Z,33.72
2022-08-26T13:22:33.336Z,33.15
2022-08-26T13:25:02.080Z,32.77
2022-08-26T13:27:30.886Z,32.67
2022-08-26T13:30:00.961Z,32.35
2022-08-26T13:32:31.145Z,32.62
2022-08-26T13:35:00.004Z,33.24
2022-08-26T13:37:35.609Z,33.45
2022-08-26T13:40:06.604Z,33.49
2022-08-26T13:42:35.482Z,33.52
2022-08-26T13:45:06.441Z,33.06
2022-08-26T13:47:37.840Z,33.83
2022-08-26T13:50:07.866Z,33.21
2022-08-26T13:52:36.710Z,33.97
2022-08-26T13:55:09.300Z,33.78
2022-08-26T13:57:38.152Z,33.81
2022-08-26T14:00:10.981Z,33.33
2022-08-26T14:02:40.230Z,33.34
2022-08-26T14:05:09.913Z,34.08
2022-08-26T14:07:41.529Z,33.89
2022-08-26T14:10:12.124Z,34.02
2022-08-26T14:12:40.699Z,33.96
2022-08-26T14:15:11.761Z,33.77
2022-08-26T14:17:40.411Z,33.33
2022-08-26T14:20:13.919Z,33.13
2022-08-26T14:23:03.406Z,34.02
2022-08-26T14:25:33.335Z,33.60
2022-08-26T14:28:01.915Z,33.72
2022-08-26T14:30:34.272Z,33.29
2022-08-26T14:33:03.004Z,33.77
2022-08-26T14:35:32.011Z,33.82
2022-08-26T14:38:00.500Z,34.42
2022-08-26T14:40:31.159Z,35.03
2022-08-26T14:43:00.576Z,34.66
2022-08-26T14:45:29.448Z,34.18
2022-08-26T14:47:59.194Z,33.92
2022-08-26T14:50:27.799Z,34.02
2022-08-26T14:53:15.033Z,34.47
2022-08-26T14:55:44.326Z,33.84
2022-08-26T14:58:13.671Z,33.57
2022-08-26T15:00:44.530Z,33.69
2022-08-26T15:05:48.882Z,33.64
2022-08-26T15:08:20.155Z,32.88
2022-08-26T15:10:50.519Z,33.70
2022-08-26T15:13:19.703Z,33.91
2022-08-26T15:15:52.039Z,33.71
2022-08-26T15:18:21.723Z,34.22
2022-08-26T15:20:52.062Z,34.26
2022-08-26T15:23:20.788Z,34.32
2022-08-26T15:25:49.880Z,34.30
2022-08-26T15:28:18.500Z,34.09
2022-08-26T15:30:47.309Z,34.15
2022-08-26T15:33:16.099Z,33.71
2022-08-26T15:35:44.783Z,34.18
2022-08-26T15:38:13.721Z,34.49
2022-08-26T15:40:43.521Z,34.62
2022-08-26T15:43:27.627Z,34.98
2022-08-26T15:45:58.231Z,34.96
2022-08-26T15:48:27.875Z,35.59
2022-08-26T15:51:00.035Z,36.26
2022-08-26T15:53:32.447Z,35.90
2022-08-26T15:56:03.703Z,35.88
2022-08-26T15:58:33.630Z,36.46
2022-08-26T16:01:05.942Z,37.45
2022-08-26T16:03:35.696Z,38.00
2022-08-26T16:06:06.288Z,37.90
2022-08-26T16:08:36.697Z,37.76
2022-08-26T16:11:06.963Z,38.20
2022-08-26T16:13:40.120Z,38.13
2022-08-26T16:16:09.997Z,38.10
2022-08-26T16:18:39.085Z,38.06
2022-08-26T16:21:13.679Z,38.04
2022-08-26T16:23:45.111Z,38.85
2022-08-26T16:26:14.918Z,39.22
2022-08-26T16:28:43.968Z,39.84
2022-08-26T16:31:13.264Z,40.11
2022-08-26T16:33:42.073Z,40.97
2022-08-26T16:36:11.938Z,41.87
2022-08-26T16:38:41.693Z,42.51
2022-08-26T16:41:10.425Z,42.83
2022-08-26T16:43:39.120Z,43.30
2022-08-26T16:46:10.779Z,43.52
2022-08-26T16:48:39.667Z,43.88
2022-08-26T16:51:12.800Z,43.92
2022-08-26T16:53:41.820Z,44.19
2022-08-26T16:56:14.290Z,44.44
2022-08-26T16:58:43.174Z,44.47
2022-08-26T17:01:11.874Z,44.57
2022-08-26T17:03:40.738Z,44.68
2022-08-26T17:06:11.006Z,45.06
2022-08-26T17:08:40.567Z,44.62
2022-08-26T17:11:09.505Z,44.12
2022-08-26T17:13:38.912Z,43.64
2022-08-26T17:16:09.964Z,43.56
2022-08-26T17:18:38.929Z,43.17
2022-08-26T17:21:10.699Z,42.97
2022-08-26T17:23:40.953Z,42.85
2022-08-26T17:26:11.401Z,42.82
2022-08-26T17:28:40.173Z,43.06
2022-08-26T17:31:10.915Z,43.44
2022-08-26T17:33:40.435Z,44.02
2022-08-26T17:36:09.803Z,44.19
2022-08-26T17:38:39.039Z,44.41
2022-08-26T17:41:09.520Z,44.76
2022-08-26T17:43:40.079Z,44.59
2022-08-26T17:46:11.282Z,44.88
2022-08-26T17:48:41.109Z,44.70
2022-08-26T17:51:11.584Z,44.83
2022-08-26T17:53:40.901Z,44.86
2022-08-26T17:56:11.000Z,44.84
2022-08-26T17:58:40.411Z,45.23
2022-08-26T18:01:08.912Z,45.82
2022-08-26T18:03:37.667Z,46.81
2022-08-26T18:06:11.498Z,48.48
2022-08-26T18:08:41.157Z,49.95
2022-08-26T18:11:12.245Z,51.36
2022-08-26T18:13:46.058Z,51.84
2022-08-26T18:16:18.155Z,51.72
2022-08-26T18:18:47.937Z,53.26
2022-08-26T18:21:19.210Z,54.12
2022-08-26T18:23:48.632Z,55.55
2022-08-26T18:26:19.915Z,56.82
2022-08-26T18:28:49.245Z,56.57
2022-08-26T18:31:18.962Z,56.40
2022-08-26T18:33:49.516Z,56.36
2022-08-26T18:36:21.971Z,56.81
2022-08-26T18:38:52.637Z,57.42
2022-08-26T18:41:24.228Z,57.75
2022-08-26T18:43:54.745Z,55.86
2022-08-26T18:46:26.116Z,54.18
2022-08-26T18:48:57.312Z,53.45
2022-08-26T18:51:29.487Z,53.57
2022-08-26T18:54:01.137Z,53.64
2022-08-26T18:56:31.917Z,53.31
2022-08-26T18:59:01.424Z,53.72
2022-08-26T19:01:32.694Z,54.57
2022-08-26T19:04:04.742Z,54.86
2022-08-26T19:06:37.802Z,55.08
2022-08-26T19:09:09.966Z,55.91
2022-08-26T19:11:43.992Z,56.87
2022-08-26T19:14:16.970Z,57.40
2022-08-26T19:16:51.824Z,57.59
2022-08-26T19:19:24.239Z,57.88
2022-08-26T19:21:56.936Z,58.12
2022-08-26T19:24:30.601Z,58.21
2022-08-26T19:27:01.272Z,58.34
2022-08-26T19:29:32.836Z,58.32
2022-08-26T19:32:12.849Z,58.61
2022-08-26T19:34:45.443Z,59.43
2022-08-26T19:37:14.331Z,59.88
2022-08-26T19:39:43.179Z,60.92
2022-08-26T19:42:11.789Z,62.47
2022-08-26T19:44:58.523Z,63.19
2022-08-26T19:47:27.156Z,63.47
2022-08-26T19:49:56.279Z,63.61
2022-08-26T19:52:29.912Z,63.50
2022-08-26T19:54:59.973Z,63.38
2022-08-26T19:57:28.681Z,63.11
2022-08-26T19:59:57.310Z,62.52
2022-08-26T20:02:25.964Z,62.53
2022-08-26T20:04:55.405Z,62.88
2022-08-26T20:07:23.812Z,63.32
2022-08-26T20:09:52.487Z,63.42
2022-08-26T20:12:21.023Z,63.74
2022-08-26T20:14:49.519Z,63.57
2022-08-26T20:17:17.992Z,63.35
2022-08-26T20:20:01.583Z,62.94
2022-08-26T20:22:30.618Z,62.83
2022-08-26T20:24:59.241Z,62.86
2022-08-26T20:27:38.097Z,62.82
2022-08-26T20:30:10.265Z,63.24
2022-08-26T20:32:39.711Z,63.69
2022-08-26T20:35:11.835Z,63.99
2022-08-26T20:37:41.048Z,64.31
2022-08-26T20:40:13.187Z,64.41
2022-08-26T20:42:41.932Z,64.58
2022-08-26T20:45:11.566Z,64.85
2022-08-26T20:47:40.744Z,65.09
2022-08-26T20:50:09.978Z,65.53
2022-08-26T20:52:38.884Z,65.47
2022-08-26T20:55:09.164Z,65.79
2022-08-26T20:57:37.671Z,66.05
2022-08-26T21:00:08.274Z,66.20
2022-08-26T21:02:36.933Z,66.29
2022-08-26T21:05:07.741Z,66.47
2022-08-26T21:07:36.260Z,66.30
2022-08-26T21:10:06.437Z,66.22
2022-08-26T21:12:35.073Z,66.29
2022-08-26T21:15:04.131Z,66.94
2022-08-26T21:17:33.606Z,67.16
2022-08-26T21:20:02.960Z,67.51
2022-08-26T21:22:31.717Z,67.76
2022-08-26T21:25:00.933Z,68.01
2022-08-26T21:27:29.584Z,68.49
2022-08-26T21:29:58.346Z,68.44
2022-08-26T21:32:27.343Z,68.61
2022-08-26T21:34:57.070Z,68.61
2022-08-26T21:37:27.419Z,68.66
2022-08-26T21:39:57.374Z,68.94
2022-08-26T21:42:26.723Z,69.24
2022-08-26T21:44:55.359Z,69.33
2022-08-26T21:47:24.317Z,69.24
2022-08-26T21:49:53.670Z,68.94
2022-08-26T21:52:22.274Z,68.79
2022-08-26T21:54:50.915Z,69.26
2022-08-26T21:57:19.966Z,69.68
2022-08-26T21:59:48.604Z,69.83
2022-08-26T22:02:17.162Z,70.12
2022-08-26T22:04:48.828Z,70.08
2022-08-26T22:07:19.473Z,70.22
2022-08-26T22:09:49.135Z,70.22
2022-08-26T22:12:18.519Z,70.16
2022-08-26T22:14:47.377Z,70.35
2022-08-26T22:17:16.399Z,70.59
2022-08-26T22:19:46.383Z,70.63
2022-08-26T22:22:15.912Z,70.59
2022-08-26T22:24:44.622Z,70.82
2022-08-26T22:27:13.648Z,70.82
2022-08-26T22:29:42.421Z,71.32
2022-08-26T22:32:11.077Z,71.40
2022-08-26T22:34:39.965Z,71.42
2022-08-26T22:37:08.460Z,71.38
2022-08-26T22:39:37.632Z,71.36
2022-08-26T22:42:06.593Z,71.19
2022-08-26T22:44:36.955Z,71.46
2022-08-26T22:47:06.069Z,71.42
2022-08-26T22:49:34.789Z,71.57
2022-08-26T22:52:04.039Z,71.49
2022-08-26T22:54:32.637Z,71.72
2022-08-26T22:57:01.342Z,71.63
2022-08-26T22:59:50.045Z,71.37
2022-08-26T23:02:19.166Z,71.31
2022-08-26T23:04:49.375Z,71.16
2022-08-26T23:07:18.065Z,71.08
2022-08-26T23:09:46.673Z,70.97
2022-08-26T23:12:15.154Z,70.86
2022-08-26T23:14:43.736Z,70.81
2022-08-26T23:17:13.745Z,70.98
2022-08-26T23:19:42.898Z,71.11
2022-08-26T23:22:11.739Z,71.31
2022-08-26T23:24:40.390Z,71.39
2022-08-26T23:27:09.138Z,71.30
2022-08-26T23:29:39.133Z,71.69
2022-08-26T23:32:07.839Z,71.83
2022-08-26T23:34:54.615Z,71.98
2022-08-26T23:37:23.334Z,72.06
2022-08-26T23:39:54.566Z,72.32
2022-08-26T23:42:23.249Z,72.44
2022-08-26T23:44:51.958Z,72.70
2022-08-26T23:47:20.575Z,72.92
2022-08-26T23:49:49.207Z,73.19
2022-08-26T23:52:35.771Z,73.16
2022-08-26T23:55:05.866Z,73.18
2022-08-26T23:57:37.773Z,72.99
